Time;durP1;ratioP1;P1;durP2;ratioP2;P2;SDS_P1;SDS_P2;PMS_P1;PMS_P2;Temp;Humidity;BMP_temperature;BMP_pressure;BME280_temperature;BME280_humidity;BME280_pressure;Samples;Min_cycle;Max_cycle;Signal;HPM_P1;HPM_P2
2021/12/15 00:00:53;;;;;;;463.98;144.18;;;;;;;1.44;100.00;100109.47;2046240;28;20249;-75
2021/12/15 00:01:58;;;;;;;436.77;139.95;;;;;;;1.45;100.00;100120.78;2046121;28;20315;-74
2021/12/15 00:03:00;;;;;;;467.50;141.25;;;;;;;1.51;100.00;100122.56;2046574;28;20237;-74
2021/12/15 00:04:02;;;;;;;495.38;142.38;;;;;;;1.50;100.00;100111.25;2054227;28;20233;-74
2021/12/15 00:05:06;;;;;;;436.58;140.48;;;;;;;1.47;100.00;100116.09;2054986;28;20231;-74
2021/12/15 00:06:12;;;;;;;465.10;139.40;;;;;;;1.45;100.00;100118.94;2054233;28;20221;-74
2021/12/15 00:07:15;;;;;;;445.17;140.43;;;;;;;1.47;100.00;100116.91;2046831;28;20293;-74
2021/12/15 00:08:17;;;;;;;450.50;141.57;;;;;;;1.47;100.00;100116.91;2054365;28;20241;-74
2021/12/15 00:09:20;;;;;;;461.55;139.95;;;;;;;1.47;100.00;100116.09;2054462;28;20312;-74
2021/12/15 00:10:21;;;;;;;481.38;144.70;;;;;;;1.50;100.00;100113.88;2046493;28;20719;-74
2021/12/15 00:11:26;;;;;;;457.67;137.38;;;;;;;1.51;100.00;100114.69;2046389;28;20277;-74
2021/12/15 00:12:28;;;;;;;474.65;141.27;;;;;;;1.54;100.00;100112.44;2053925;28;20566;-74
2021/12/15 00:13:29;;;;;;;492.70;143.55;;;;;;;1.56;100.00;100105.13;2054946;28;20233;-74
2021/12/15 00:14:33;;;;;;;471.17;140.43;;;;;;;1.52;100.00;100109.22;2054906;28;20226;-74
2021/12/15 00:15:35;;;;;;;480.42;140.93;;;;;;;1.54;100.00;100109.81;2054128;28;20225;-74
2021/12/15 00:16:37;;;;;;;516.60;142.90;;;;;;;1.52;100.00;100105.78;2046273;28;20754;-74
2021/12/15 00:17:39;;;;;;;493.70;145.25;;;;;;;1.53;100.00;100110.03;2045839;28;20769;-75
2021/12/15 00:18:41;;;;;;;487.17;138.77;;;;;;;1.54;100.00;100107.19;2054026;28;20288;-75
2021/12/15 00:19:44;;;;;;;491.77;140.95;;;;;;;1.54;100.00;100109.81;2054074;28;20228;-74
2021/12/15 00:20:46;;;;;;;504.08;141.43;;;;;;;1.56;100.00;100106.97;2046204;28;20225;-75
2021/12/15 00:21:48;;;;;;;494.70;144.18;;;;;;;1.53;100.00;100113.44;2054070;28;20659;-74
2021/12/15 00:22:52;;;;;;;506.20;142.75;;;;;;;1.53;100.00;100112.66;2054186;28;20248;-74
2021/12/15 00:23:56;;;;;;;502.15;139.85;;;;;;;1.51;100.00;100104.97;2053641;28;20256;-74
2021/12/15 00:24:58;;;;;;;510.48;141.60;;;;;;;1.48;100.00;100100.16;2046161;28;20324;-74
2021/12/15 00:25:59;;;;;;;497.02;134.93;;;;;;;1.50;100.00;100111.25;2046071;28;20234;-74
2021/12/15 00:27:00;;;;;;;491.25;146.65;;;;;;;1.45;100.00;100092.66;2046234;28;20280;-74
2021/12/15 00:28:02;;;;;;;519.67;144.77;;;;;;;1.52;100.00;100113.66;2046032;28;20238;-74
2021/12/15 00:29:06;;;;;;;495.15;141.48;;;;;;;1.52;100.00;100105.78;2054280;28;20230;-74
2021/12/15 00:30:12;;;;;;;527.60;145.68;;;;;;;1.53;100.00;100110.81;2054189;28;20226;-74
2021/12/15 00:31:14;;;;;;;543.13;144.40;;;;;;;1.52;100.00;100114.47;2046198;28;20229;-75
2021/12/15 00:32:15;;;;;;;500.42;145.10;;;;;;;1.59;100.00;100117.88;2053951;28;20241;-74
2021/12/15 00:33:17;;;;;;;497.77;144.77;;;;;;;1.56;100.00;100123.53;2054060;28;20248;-74
2021/12/15 00:34:19;;;;;;;505.85;144.48;;;;;;;1.56;100.00;100118.28;2046069;28;20225;-74
2021/12/15 00:35:21;;;;;;;535.83;150.25;;;;;;;1.56;100.00;100122.72;2054167;28;20268;-74
2021/12/15 00:36:22;;;;;;;530.78;148.98;;;;;;;1.53;100.00;100123.16;2054883;28;20229;-74
2021/12/15 00:37:24;;;;;;;528.67;145.57;;;;;;;1.53;100.00;100116.09;2053671;28;20240;-75
2021/12/15 00:38:25;;;;;;;518.95;148.88;;;;;;;1.52;100.00;100118.94;2053929;28;20232;-74
2021/12/15 00:39:29;;;;;;;521.25;147.15;;;;;;;1.54;100.00;100119.53;2054733;28;20249;-75
2021/12/15 00:40:29;;;;;;;510.00;145.77;;;;;;;1.53;100.00;100117.91;2053956;28;20276;-75
2021/12/15 00:41:31;;;;;;;527.13;143.80;;;;;;;1.56;100.00;100134.06;2045997;28;20222;-74
2021/12/15 00:42:33;;;;;;;514.45;142.68;;;;;;;1.53;100.00;100120.53;2053918;28;20707;-74
2021/12/15 00:43:36;;;;;;;517.97;143.25;;;;;;;1.53;100.00;100125.78;2053943;28;20229;-74
2021/12/15 00:44:39;;;;;;;519.45;144.60;;;;;;;1.54;100.00;100130.03;2053711;28;20285;-75
2021/12/15 00:45:41;;;;;;;543.50;148.85;;;;;;;1.52;100.00;100135.50;2053875;28;20312;-74
2021/12/15 00:46:44;;;;;;;535.72;145.05;;;;;;;1.51;100.00;100139.16;2045382;28;20227;-74
2021/12/15 00:47:46;;;;;;;540.35;146.80;;;;;;;1.51;100.00;100141.00;2046456;28;20217;-74
2021/12/15 00:48:49;;;;;;;595.63;154.02;;;;;;;1.51;100.00;100133.91;2046462;28;20621;-75
2021/12/15 00:49:51;;;;;;;553.67;147.60;;;;;;;1.52;100.00;100135.50;2046325;28;20225;-74
2021/12/15 00:50:55;;;;;;;537.35;146.35;;;;;;;1.52;100.00;100129.44;2046020;28;20700;-74
2021/12/15 00:51:57;;;;;;;521.45;145.35;;;;;;;1.54;100.00;100127.41;2045855;28;20325;-74
2021/12/15 00:52:58;;;;;;;532.30;142.43;;;;;;;1.55;100.00;100129.00;2053968;28;20234;-74
2021/12/15 00:53:59;;;;;;;549.72;140.13;;;;;;;1.52;100.00;100130.25;2053890;28;20217;-75
2021/12/15 00:55:01;;;;;;;542.85;143.57;;;;;;;1.56;100.00;100125.38;2046110;28;20286;-74
2021/12/15 00:56:03;;;;;;;501.40;135.10;;;;;;;1.56;100.00;100128.00;2045905;28;20329;-75
2021/12/15 00:57:06;;;;;;;523.55;139.40;;;;;;;1.54;100.00;100122.94;2046275;28;20228;-74
2021/12/15 00:58:08;;;;;;;508.48;138.05;;;;;;;1.57;100.00;100127.81;2045835;28;20253;-75
2021/12/15 00:59:11;;;;;;;513.60;141.73;;;;;;;1.58;100.00;100129.41;2053878;28;20226;-75
2021/12/15 01:00:17;;;;;;;524.95;142.88;;;;;;;1.59;100.00;100131.03;2054710;28;20225;-74
2021/12/15 01:01:20;;;;;;;545.70;141.73;;;;;;;1.57;100.00;100127.81;2053775;28;20607;-74
2021/12/15 01:02:21;;;;;;;496.17;138.90;;;;;;;1.56;100.00;100136.69;2046091;28;20222;-74
2021/12/15 01:03:27;;;;;;;532.33;138.50;;;;;;;1.54;100.00;100130.84;2045882;28;20234;-74
2021/12/15 01:04:34;;;;;;;507.38;136.90;;;;;;;1.55;100.00;100127.19;2053632;28;20511;-75
2021/12/15 01:05:37;;;;;;;555.80;142.98;;;;;;;1.58;100.00;100131.25;2053860;28;20221;-74
2021/12/15 01:06:41;;;;;;;518.92;139.75;;;;;;;1.57;100.00;100135.69;2045834;28;20260;-75
2021/12/15 01:07:42;;;;;;;517.65;139.00;;;;;;;1.54;100.00;100130.84;2046411;28;20249;-74
2021/12/15 01:08:48;;;;;;;536.55;139.20;;;;;;;1.52;100.00;100130.25;2045834;28;20237;-75
2021/12/15 01:09:55;;;;;;;533.30;139.18;;;;;;;1.51;100.00;100122.56;2046106;28;20233;-74
2021/12/15 01:11:10;;;;;;;512.75;137.40;;;;;;;1.51;100.00;100133.91;2053608;28;20233;-74
2021/12/15 01:12:21;;;;;;;489.73;132.85;;;;;;;1.51;100.00;100133.09;2053373;28;20687;-75
2021/12/15 01:20:21;;;;;;;522.10;133.98;;;;;;;1.56;100.00;100120.09;2047896;28;20606;-75
2021/12/15 01:21:22;;;;;;;501.98;128.45;;;;;;;1.52;100.00;100114.47;2054042;28;20280;-76
2021/12/15 01:22:28;;;;;;;497.60;134.60;;;;;;;1.55;100.00;100121.94;2053699;28;20320;-75
2021/12/15 01:23:29;;;;;;;512.47;131.07;;;;;;;1.58;100.00;100124.16;2053601;28;20642;-75
2021/12/15 01:24:34;;;;;;;489.85;134.30;;;;;;;1.60;100.00;100121.31;2053833;28;20304;-75
2021/12/15 01:25:39;;;;;;;510.17;132.52;;;;;;;1.61;100.00;100130.81;2053730;28;20584;-75
2021/12/15 01:26:41;;;;;;;472.42;126.07;;;;;;;1.61;100.00;100128.19;2053492;28;20232;-75
2021/12/15 01:27:43;;;;;;;487.35;130.32;;;;;;;1.60;100.00;100127.38;2053656;28;20229;-75
2021/12/15 01:28:44;;;;;;;496.45;133.43;;;;;;;1.63;100.00;100126.16;2045767;28;20238;-75
2021/12/15 01:29:45;;;;;;;482.25;129.40;;;;;;;1.64;100.00;100123.28;2046024;28;20230;-75
2021/12/15 01:30:48;;;;;;;488.63;132.85;;;;;;;1.63;100.00;100124.31;2045778;28;20222;-75
2021/12/15 01:31:49;;;;;;;481.88;128.02;;;;;;;1.63;100.00;100121.69;2053729;28;20688;-75
2021/12/15 01:32:55;;;;;;;470.77;125.53;;;;;;;1.65;100.00;100135.47;2053677;28;20655;-75
2021/12/15 01:33:56;;;;;;;498.08;132.63;;;;;;;1.66;100.00;100128.38;2045759;28;20458;-75
2021/12/15 01:34:58;;;;;;;474.73;122.33;;;;;;;1.62;100.00;100121.91;2045993;28;20234;-75
2021/12/15 01:36:00;;;;;;;487.00;126.63;;;;;;;1.65;100.00;100124.94;2045946;28;20233;-75
2021/12/15 01:37:02;;;;;;;466.45;127.38;;;;;;;1.70;100.00;100125.09;2053828;28;20213;-75
2021/12/15 01:38:06;;;;;;;501.33;131.30;;;;;;;1.69;100.00;100135.81;2045983;28;20237;-75
2021/12/15 01:39:09;;;;;;;483.52;127.20;;;;;;;1.69;100.00;100135.81;2053268;28;20224;-75
2021/12/15 01:40:25;;;;;;;495.60;127.95;;;;;;;1.68;100.00;100129.75;2045516;28;20684;-75
2021/12/15 01:41:26;;;;;;;455.77;125.45;;;;;;;1.68;100.00;100121.88;2055167;28;20221;-75
2021/12/15 01:42:31;;;;;;;496.33;128.37;;;;;;;1.72;100.00;100129.34;2053463;28;20239;-75
2021/12/15 01:43:49;;;;;;;476.98;127.85;;;;;;;1.72;100.00;100137.22;2054195;28;20246;-75
2021/12/15 01:47:36;;;;;;;494.92;133.38;;;;;;;1.68;100.00;100134.22;2053709;28;20344;-74
2021/12/15 01:48:38;;;;;;;503.27;128.88;;;;;;;1.67;100.00;100133.41;2053783;28;20300;-74
2021/12/15 01:49:42;;;;;;;481.98;128.93;;;;;;;1.67;100.00;100127.34;2053245;28;20237;-74
2021/12/15 01:50:43;;;;;;;499.50;129.55;;;;;;;1.68;100.00;100129.75;2054042;28;20668;-74
2021/12/15 01:51:47;;;;;;;520.80;130.97;;;;;;;1.71;100.00;100133.78;2053569;28;20611;-74
2021/12/15 01:52:50;;;;;;;481.98;129.38;;;;;;;1.69;100.00;100134.00;2053999;28;20341;-74
2021/12/15 01:53:51;;;;;;;518.08;132.27;;;;;;;1.65;100.00;100122.31;2045669;28;20705;-74
2021/12/15 01:54:56;;;;;;;526.85;136.38;;;;;;;1.65;100.00;100124.94;2044969;28;20641;-76
2021/12/15 01:55:57;;;;;;;517.92;135.10;;;;;;;1.66;100.00;100131.00;2053801;28;20781;-73
2021/12/15 01:56:59;;;;;;;506.73;131.63;;;;;;;1.66;100.00;100125.75;2045792;28;20657;-74
2021/12/15 01:58:01;;;;;;;498.10;134.73;;;;;;;1.65;100.00;100124.94;2054488;28;20480;-74
2021/12/15 01:59:04;;;;;;;502.35;132.38;;;;;;;1.64;100.00;100120.66;2055074;28;20228;-74
2021/12/15 02:00:09;;;;;;;488.70;129.02;;;;;;;1.65;100.00;100119.69;2055386;28;20217;-74
2021/12/15 02:01:14;;;;;;;480.42;131.60;;;;;;;1.68;100.00;100119.25;2054804;28;20236;-73
2021/12/15 02:02:17;;;;;;;515.00;134.73;;;;;;;1.66;100.00;100110.75;2054746;28;20724;-73
2021/12/15 02:03:18;;;;;;;479.08;129.18;;;;;;;1.68;100.00;100124.50;2047705;28;20716;-74
2021/12/15 02:04:23;;;;;;;486.15;129.88;;;;;;;1.68;100.00;100127.13;2047323;28;20234;-74
2021/12/15 02:05:25;;;;;;;472.83;126.68;;;;;;;1.66;100.00;100123.91;2054980;28;20228;-74
2021/12/15 02:06:28;;;;;;;466.77;127.60;;;;;;;1.67;100.00;100122.91;2055932;28;20245;-74
2021/12/15 02:07:30;;;;;;;481.40;125.18;;;;;;;1.68;100.00;100124.50;2055011;28;20225;-74
2021/12/15 02:08:32;;;;;;;471.98;124.35;;;;;;;1.69;100.00;100125.31;2047015;28;20316;-74
2021/12/15 02:10:01;;;;;;;443.80;123.50;;;;;;;1.68;100.00;100124.50;2047340;28;20226;-74
2021/12/15 02:11:03;;;;;;;487.90;124.05;;;;;;;1.72;100.00;100129.34;2055041;28;20284;-74
2021/12/15 02:12:05;;;;;;;451.77;121.82;;;;;;;1.73;100.00;100125.69;2055143;28;20730;-74
2021/12/15 02:13:10;;;;;;;487.73;125.20;;;;;;;1.73;100.00;100136.19;2046829;28;20277;-74
2021/12/15 02:14:11;;;;;;;454.35;123.03;;;;;;;1.73;100.00;100125.69;2047164;28;20310;-74
2021/12/15 02:15:16;;;;;;;443.30;124.22;;;;;;;1.73;100.00;100123.03;2047293;28;20225;-74
2021/12/15 02:16:17;;;;;;;452.98;125.90;;;;;;;1.72;100.00;100124.88;2047800;28;20254;-74
2021/12/15 02:17:19;;;;;;;479.63;125.53;;;;;;;1.77;100.00;100127.69;2047378;28;20229;-74
2021/12/15 02:18:26;;;;;;;464.20;124.88;;;;;;;1.69;100.00;100118.22;2047396;28;20458;-73
2021/12/15 02:19:32;;;;;;;469.90;124.00;;;;;;;1.76;100.00;100130.53;2047596;28;20249;-74
2021/12/15 02:20:38;;;;;;;441.85;120.65;;;;;;;1.73;100.00;100130.94;2047534;28;20248;-74
2021/12/15 02:21:41;;;;;;;417.00;118.53;;;;;;;1.76;100.00;100130.53;2047267;28;20226;-74
2021/12/15 02:22:43;;;;;;;433.40;117.18;;;;;;;1.74;100.00;100132.53;2047122;28;20257;-74
2021/12/15 02:23:49;;;;;;;432.10;119.28;;;;;;;1.79;100.00;100122.22;2055017;28;20747;-74
2021/12/15 02:24:52;;;;;;;419.65;117.90;;;;;;;1.80;100.00;100137.78;2055123;28;20707;-74
2021/12/15 02:25:53;;;;;;;450.67;120.07;;;;;;;1.80;100.00;100134.34;2054605;28;20233;-74
2021/12/15 02:26:59;;;;;;;422.50;117.43;;;;;;;1.80;100.00;100135.16;2046543;28;20293;-74
2021/12/15 02:28:03;;;;;;;429.13;120.60;;;;;;;1.77;100.00;100127.69;2047538;28;20237;-74
2021/12/15 02:29:07;;;;;;;411.80;110.70;;;;;;;1.80;100.00;100131.72;2047303;28;20742;-74
2021/12/15 02:30:26;;;;;;;403.95;115.35;;;;;;;1.81;100.00;100133.31;2054595;28;20750;-74
2021/12/15 02:31:40;;;;;;;423.63;117.63;;;;;;;1.84;100.00;100127.66;2054586;28;20232;-74
2021/12/15 02:32:53;;;;;;;396.35;116.10;;;;;;;1.82;100.00;100135.72;2047406;28;20230;-74
2021/12/15 02:34:04;;;;;;;412.25;112.68;;;;;;;1.88;100.00;100141.97;2048093;28;20292;-74
2021/12/15 02:37:47;;;;;;;385.52;109.38;;;;;;;1.91;100.00;100136.28;2048897;28;20260;-74
2021/12/15 02:38:48;;;;;;;395.40;113.30;;;;;;;1.88;100.00;100137.53;2047057;28;20336;-74
2021/12/15 02:39:54;;;;;;;394.13;114.40;;;;;;;1.89;100.00;100135.69;2046965;28;20273;-74
2021/12/15 02:41:04;;;;;;;399.10;111.65;;;;;;;1.89;100.00;100135.69;2055151;28;20236;-74
2021/12/15 02:42:08;;;;;;;435.45;113.57;;;;;;;1.94;100.00;100149.03;2054781;28;20257;-74
2021/12/15 02:43:10;;;;;;;384.17;106.30;;;;;;;1.89;100.00;100139.13;2054616;28;20228;-73
2021/12/15 02:44:12;;;;;;;413.98;112.10;;;;;;;1.88;100.00;100140.16;2054815;28;20229;-74
2021/12/15 02:45:18;;;;;;;431.60;114.68;;;;;;;1.87;100.00;100141.19;2047072;28;20244;-74
2021/12/15 02:46:20;;;;;;;417.35;115.68;;;;;;;1.84;100.00;100128.47;2047356;28;20221;-74
2021/12/15 02:47:25;;;;;;;399.17;111.10;;;;;;;1.85;100.00;100137.97;2054910;28;20669;-74
2021/12/15 02:48:26;;;;;;;397.75;108.85;;;;;;;1.85;100.00;100137.16;2055287;28;20618;-74
2021/12/15 02:49:30;;;;;;;409.58;110.65;;;;;;;1.85;100.00;100151.13;2054879;28;20319;-74
2021/12/15 02:50:33;;;;;;;434.70;110.47;;;;;;;1.91;100.00;100146.81;2054971;28;20328;-74
2021/12/15 02:51:37;;;;;;;423.65;115.28;;;;;;;1.88;100.00;100140.16;2054957;28;20221;-74
2021/12/15 02:52:39;;;;;;;401.55;107.18;;;;;;;1.91;100.00;100154.72;2054244;28;20229;-75
2021/12/15 02:53:40;;;;;;;409.73;109.85;;;;;;;1.91;100.00;100145.00;2046774;28;20269;-74
2021/12/15 02:54:42;;;;;;;404.17;108.53;;;;;;;1.90;100.00;100140.75;2046802;28;20229;-74
2021/12/15 02:55:45;;;;;;;413.92;112.28;;;;;;;1.90;100.00;100140.75;2054805;28;20233;-74
2021/12/15 02:56:48;;;;;;;413.88;111.18;;;;;;;1.90;100.00;100139.94;2054871;28;20225;-74
2021/12/15 02:57:51;;;;;;;393.02;106.47;;;;;;;1.90;100.00;100143.38;2054696;28;20634;-74
2021/12/15 02:58:58;;;;;;;401.00;105.63;;;;;;;1.92;100.00;100151.09;2054660;28;20312;-76
2021/12/15 03:00:02;;;;;;;418.85;106.32;;;;;;;1.94;100.00;100151.66;2054746;28;20233;-73
2021/12/15 03:01:14;;;;;;;391.30;104.78;;;;;;;1.95;100.00;100161.16;2047074;28;20225;-74
2021/12/15 03:02:39;;;;;;;422.52;106.72;;;;;;;1.93;100.00;100171.13;2047810;28;20218;-74
2021/12/15 03:04:11;;;;;;;405.05;105.68;;;;;;;1.90;100.00;100159.16;2049477;28;20330;-74
2021/12/15 03:05:16;;;;;;;383.48;103.70;;;;;;;1.90;100.00;100176.78;2054594;28;20226;-74
2021/12/15 03:06:25;;;;;;;394.33;104.00;;;;;;;1.90;100.00;100169.69;2055006;28;20622;-74
2021/12/15 03:07:33;;;;;;;411.52;107.20;;;;;;;1.88;100.00;100155.13;2054318;28;20259;-74
2021/12/15 03:08:56;;;;;;;407.90;104.28;;;;;;;1.93;100.00;100171.91;2055605;28;20221;-74
2021/12/15 03:15:30;;;;;;;362.98;96.25;;;;;;;2.00;100.00;100171.88;2054425;28;20225;-74
2021/12/15 03:16:31;;;;;;;349.83;98.65;;;;;;;1.99;100.00;100180.78;2054148;28;20252;-73
2021/12/15 03:17:33;;;;;;;340.17;97.55;;;;;;;1.97;100.00;100170.47;2046739;28;20898;-74
2021/12/15 03:18:35;;;;;;;383.63;98.93;;;;;;;1.97;100.00;100169.66;2054575;28;20260;-74
2021/12/15 03:19:37;;;;;;;339.85;97.65;;;;;;;1.97;100.00;100172.28;2055258;28;20221;-74
2021/12/15 03:20:48;;;;;;;363.65;102.85;;;;;;;1.94;100.00;100168.25;2054878;28;20225;-73
2021/12/15 03:21:49;;;;;;;354.33;98.13;;;;;;;1.96;100.00;100183.84;2055353;28;20651;-74
2021/12/15 03:22:52;;;;;;;335.07;94.57;;;;;;;1.96;100.00;100171.47;2054275;28;20237;-74
2021/12/15 03:23:58;;;;;;;366.67;98.00;;;;;;;1.97;100.00;100178.34;2054306;28;20480;-74
2021/12/15 03:24:58;;;;;;;386.33;101.68;;;;;;;1.98;100.00;100171.25;2054655;28;20305;-73
2021/12/15 03:26:01;;;;;;;356.23;97.47;;;;;;;1.98;100.00;100171.25;2046641;28;20226;-74
2021/12/15 03:27:06;;;;;;;381.67;99.03;;;;;;;2.01;100.00;100170.84;2046615;28;20273;-73
2021/12/15 03:33:39;;;;;;;357.80;95.00;;;;;;;2.11;100.00;100178.28;2054030;28;20312;-75
2021/12/15 03:34:48;;;;;;;323.42;92.10;;;;;;;2.09;100.00;100178.50;2055585;28;20590;-75
2021/12/15 03:36:02;;;;;;;347.25;96.72;;;;;;;2.06;100.00;100184.16;2061610;28;20689;-74
2021/12/15 03:37:22;;;;;;;344.90;95.15;;;;;;;2.06;100.00;100183.38;2054300;28;20312;-74
2021/12/15 03:38:25;;;;;;;339.38;95.57;;;;;;;2.05;100.00;100179.94;2054281;28;20227;-75
2021/12/15 03:39:30;;;;;;;367.05;94.55;;;;;;;2.02;100.00;100183.00;2054178;28;20593;-75
2021/12/15 03:40:39;;;;;;;348.85;97.75;;;;;;;2.00;100.00;100174.50;2054668;28;20245;-75
2021/12/15 03:41:40;;;;;;;328.23;91.25;;;;;;;2.04;100.00;100180.97;2053976;28;20221;-75
2021/12/15 03:42:45;;;;;;;327.30;93.22;;;;;;;2.05;100.00;100181.75;2046716;28;20249;-75
2021/12/15 03:43:46;;;;;;;343.35;94.18;;;;;;;2.06;100.00;100178.09;2046940;28;20349;-75
2021/12/15 03:44:48;;;;;;;328.38;88.93;;;;;;;2.07;100.00;100179.72;2054502;28;20229;-74
2021/12/15 03:45:53;;;;;;;339.65;94.00;;;;;;;2.06;100.00;100186.00;2054446;28;20755;-74
2021/12/15 03:46:55;;;;;;;327.20;91.22;;;;;;;2.08;100.00;100183.97;2054189;28;20237;-75
2021/12/15 03:47:58;;;;;;;343.90;94.88;;;;;;;2.07;100.00;100184.97;2055152;28;20237;-75
2021/12/15 03:49:00;;;;;;;346.27;90.50;;;;;;;2.05;100.00;100192.28;2054489;28;20217;-74
2021/12/15 03:50:03;;;;;;;376.45;97.63;;;;;;;2.06;100.00;100194.69;2046672;28;20226;-75
2021/12/15 03:51:05;;;;;;;309.90;86.75;;;;;;;2.10;100.00;100189.84;2046674;28;20692;-75
2021/12/15 03:52:08;;;;;;;344.58;93.47;;;;;;;2.08;100.00;100195.28;2046907;28;20316;-75
2021/12/15 03:53:10;;;;;;;334.67;89.72;;;;;;;2.06;100.00;100199.97;2046126;28;20230;-76
2021/12/15 03:54:12;;;;;;;353.13;97.00;;;;;;;2.08;100.00;100199.75;2046695;28;20222;-75
2021/12/15 03:55:14;;;;;;;329.40;94.35;;;;;;;2.04;100.00;100194.13;2046408;28;20252;-74
2021/12/15 03:56:16;;;;;;;351.58;92.53;;;;;;;2.07;100.00;100193.69;2054333;28;20627;-74
2021/12/15 03:57:18;;;;;;;340.02;90.53;;;;;;;2.06;100.00;100202.59;2054317;28;20273;-74
2021/12/15 03:58:24;;;;;;;336.65;89.75;;;;;;;2.06;100.00;100197.34;2046897;28;20679;-75
2021/12/15 03:59:28;;;;;;;340.75;88.13;;;;;;;2.11;100.00;100202.78;2054235;28;20249;-75
2021/12/15 04:00:30;;;;;;;338.85;91.68;;;;;;;2.08;100.00;100208.44;2055136;28;20299;-75
2021/12/15 04:01:31;;;;;;;353.15;91.72;;;;;;;2.07;100.00;100203.41;2055174;28;20221;-75
2021/12/15 04:02:34;;;;;;;351.53;92.63;;;;;;;2.03;100.00;100196.97;2054477;28;20244;-74
2021/12/15 04:03:37;;;;;;;336.52;90.68;;;;;;;2.05;100.00;100200.19;2054492;28;20221;-75
2021/12/15 04:04:39;;;;;;;317.70;86.90;;;;;;;2.04;100.00;100199.38;2054755;28;20218;-76
2021/12/15 04:05:40;;;;;;;343.95;87.15;;;;;;;2.09;100.00;100202.19;2055019;28;20282;-74
2021/12/15 04:06:43;;;;;;;323.73;86.40;;;;;;;2.08;100.00;100200.56;2054324;28;20268;-75
2021/12/15 04:07:44;;;;;;;352.40;92.50;;;;;;;2.08;100.00;100202.38;2046421;28;20247;-75
2021/12/15 04:08:47;;;;;;;394.85;95.75;;;;;;;2.05;100.00;100203.63;2054275;28;20256;-75
2021/12/15 04:09:49;;;;;;;351.73;89.15;;;;;;;2.05;100.00;100203.63;2054463;28;20292;-75
2021/12/15 04:10:51;;;;;;;337.13;93.20;;;;;;;2.06;100.00;100197.34;2054342;28;20280;-75
2021/12/15 04:11:55;;;;;;;351.33;89.90;;;;;;;2.06;100.00;100199.97;2053640;28;20236;-77
2021/12/15 04:12:57;;;;;;;358.30;89.03;;;;;;;2.10;100.00;100201.16;2046470;28;20249;-74
2021/12/15 04:14:00;;;;;;;323.60;87.25;;;;;;;2.10;100.00;100195.09;2046374;28;20238;-75
2021/12/15 04:15:20;;;;;;;369.75;93.15;;;;;;;2.09;100.00;100201.38;2046925;28;20237;-75
2021/12/15 04:16:42;;;;;;;351.02;91.07;;;;;;;2.04;100.00;100196.75;2048466;28;20298;-75
2021/12/15 04:17:43;;;;;;;327.25;86.05;;;;;;;2.03;100.00;100205.66;2048338;28;20233;-75
2021/12/15 04:18:45;;;;;;;365.95;88.07;;;;;;;2.04;100.00;100203.84;2054235;28;20627;-75
2021/12/15 04:19:46;;;;;;;355.48;89.32;;;;;;;2.05;100.00;100208.88;2054994;28;20233;-75
2021/12/15 04:20:48;;;;;;;308.77;87.07;;;;;;;2.05;100.00;100208.88;2053991;28;20683;-75
2021/12/15 04:21:49;;;;;;;323.83;87.00;;;;;;;2.03;100.00;100204.84;2046267;28;20265;-74
2021/12/15 04:22:51;;;;;;;318.33;85.15;;;;;;;2.02;100.00;100201.41;2054299;28;20225;-75
2021/12/15 04:23:53;;;;;;;306.33;85.13;;;;;;;2.05;100.00;100203.63;2054125;28;20754;-75
2021/12/15 04:24:58;;;;;;;311.25;80.35;;;;;;;2.05;100.00;100203.63;2053732;28;20233;-75
2021/12/15 04:26:02;;;;;;;304.90;81.90;;;;;;;2.07;100.00;100201.56;2046503;28;20230;-75
2021/12/15 04:27:04;;;;;;;299.27;79.60;;;;;;;2.12;100.00;100204.38;2046565;28;20229;-75
2021/12/15 04:28:08;;;;;;;320.58;84.13;;;;;;;2.11;100.00;100199.34;2046256;28;20591;-74
2021/12/15 04:29:09;;;;;;;295.85;81.30;;;;;;;2.10;100.00;100203.81;2046135;28;20657;-75
2021/12/15 04:30:12;;;;;;;308.93;82.57;;;;;;;2.11;100.00;100208.03;2054245;28;20252;-75
2021/12/15 04:31:18;;;;;;;295.17;81.55;;;;;;;2.12;100.00;100203.59;2053981;28;20767;-75
2021/12/15 04:32:24;;;;;;;316.52;85.95;;;;;;;2.15;100.00;100209.22;2046795;28;20222;-75
2021/12/15 04:33:29;;;;;;;296.17;81.70;;;;;;;2.15;100.00;100203.97;2053746;28;20260;-74
2021/12/15 04:34:31;;;;;;;299.08;83.57;;;;;;;2.16;100.00;100215.28;2054728;28;20689;-74
2021/12/15 04:35:31;;;;;;;276.73;80.13;;;;;;;2.15;100.00;100208.41;2053971;28;20659;-75
2021/12/15 04:36:36;;;;;;;288.37;80.60;;;;;;;2.16;100.00;100208.19;2054165;28;20222;-75
2021/12/15 04:37:38;;;;;;;298.95;82.00;;;;;;;2.15;100.00;100211.84;2054105;28;20229;-75
2021/12/15 04:38:42;;;;;;;297.15;83.35;;;;;;;2.16;100.00;100205.56;2054549;28;20275;-75
2021/12/15 04:39:44;;;;;;;305.58;83.32;;;;;;;2.16;100.00;100210.84;2054041;28;20237;-75
2021/12/15 04:40:47;;;;;;;265.17;77.25;;;;;;;2.15;100.00;100209.22;2046315;28;20246;-75
2021/12/15 04:41:51;;;;;;;293.20;79.20;;;;;;;2.15;100.00;100214.47;2046210;28;20317;-75
2021/12/15 04:42:54;;;;;;;287.17;79.55;;;;;;;2.18;100.00;100215.91;2053719;28;20229;-77
2021/12/15 04:44:00;;;;;;;280.20;76.75;;;;;;;2.17;100.00;100219.53;2054810;28;20228;-75
2021/12/15 04:45:02;;;;;;;274.75;80.95;;;;;;;2.19;100.00;100226.22;2054628;28;20221;-75
2021/12/15 04:46:04;;;;;;;287.98;80.22;;;;;;;2.19;100.00;100220.97;2053689;28;20225;-75
2021/12/15 04:47:10;;;;;;;281.73;76.97;;;;;;;2.20;100.00;100217.31;2053536;28;20232;-75
2021/12/15 04:48:14;;;;;;;292.90;80.30;;;;;;;2.18;100.00;100219.34;2046270;28;20248;-75
2021/12/15 04:49:18;;;;;;;281.25;78.85;;;;;;;2.20;100.00;100219.94;2046582;28;20622;-75
2021/12/15 04:50:21;;;;;;;291.55;80.30;;;;;;;2.19;100.00;100215.69;2046342;28;20717;-75
2021/12/15 04:51:23;;;;;;;278.02;80.22;;;;;;;2.20;100.00;100219.13;2053990;28;20308;-75
2021/12/15 04:52:27;;;;;;;280.70;80.15;;;;;;;2.23;100.00;100227.41;2053766;28;20229;-75
2021/12/15 04:53:30;;;;;;;303.30;82.82;;;;;;;2.22;100.00;100222.34;2054571;28;20581;-75
2021/12/15 04:54:30;;;;;;;291.55;83.20;;;;;;;2.23;100.00;100230.03;2054878;28;20228;-75
2021/12/15 04:55:35;;;;;;;289.98;81.63;;;;;;;2.21;100.00;100223.38;2053988;28;20716;-75
2021/12/15 04:56:37;;;;;;;298.80;83.53;;;;;;;2.21;100.00;100228.63;2046253;28;20221;-75
2021/12/15 04:57:39;;;;;;;277.85;79.70;;;;;;;2.24;100.00;100223.75;2045693;28;20305;-76
2021/12/15 04:58:40;;;;;;;304.42;80.30;;;;;;;2.21;100.00;100224.19;2054215;28;20645;-75
2021/12/15 04:59:43;;;;;;;293.03;82.67;;;;;;;2.21;100.00;100218.09;2062208;28;20294;-75
2021/12/15 05:00:51;;;;;;;317.90;84.10;;;;;;;2.21;100.00;100226.00;2054801;28;20754;-75
2021/12/15 05:01:52;;;;;;;280.77;82.07;;;;;;;2.19;100.00;100220.97;2053881;28;20240;-75
2021/12/15 05:02:53;;;;;;;283.13;78.78;;;;;;;2.19;100.00;100222.78;2053778;28;20229;-75
2021/12/15 05:03:55;;;;;;;275.00;81.37;;;;;;;2.20;100.00;100222.56;2053758;28;20747;-75
2021/12/15 05:04:58;;;;;;;270.40;83.18;;;;;;;2.24;100.00;100225.56;2046097;28;20629;-75
2021/12/15 05:06:00;;;;;;;282.33;77.82;;;;;;;2.20;100.00;100221.75;2053758;28;20711;-75
2021/12/15 05:07:01;;;;;;;275.25;79.05;;;;;;;2.26;100.00;100226.19;2045885;28;20677;-75
2021/12/15 05:08:04;;;;;;;266.45;77.75;;;;;;;2.26;100.00;100227.00;2045986;28;20218;-75
2021/12/15 05:09:05;;;;;;;286.55;80.53;;;;;;;2.26;100.00;100231.44;2053986;28;20237;-74